createdAt,value
2018-06-03T00:01:33.036Z,9.37
2018-06-03T00:04:05.084Z,9.23
2018-06-03T00:06:36.088Z,10.97
2018-06-03T00:09:08.124Z,10.57
2018-06-03T00:11:39.117Z,10.83
2018-06-03T00:14:09.970Z,9.73
2018-06-03T00:16:40.902Z,10.83
2018-06-03T00:19:11.675Z,10.93
2018-06-03T00:21:46.553Z,9.83
2018-06-03T00:24:17.505Z,10.80
2018-06-03T00:26:48.995Z,10.40
2018-06-03T00:29:20.362Z,12.87
2018-06-03T00:31:51.440Z,10.23
2018-06-03T00:34:22.724Z,10.63
2018-06-03T00:36:53.708Z,8.83
2018-06-03T00:39:24.962Z,9.63
2018-06-03T00:41:56.341Z,7.87
2018-06-03T00:44:27.891Z,10.00
2018-06-03T00:46:59.334Z,11.17
2018-06-03T00:49:30.375Z,10.40
2018-06-03T00:52:01.928Z,9.30
2018-06-03T00:54:33.630Z,9.83
2018-06-03T00:57:11.172Z,8.73
2018-06-03T00:59:42.684Z,9.90
2018-06-03T01:02:14.160Z,8.53
2018-06-03T01:04:45.363Z,8.53
2018-06-03T01:07:16.769Z,8.40
2018-06-03T01:09:48.248Z,9.07
2018-06-03T01:12:19.328Z,7.07
2018-06-03T01:14:50.429Z,8.03
2018-06-03T01:17:21.646Z,10.37
2018-06-03T01:19:52.946Z,9.40
2018-06-03T01:22:23.946Z,9.10
2018-06-03T01:24:54.993Z,7.80
2018-06-03T01:27:26.618Z,8.20
2018-06-03T01:29:57.635Z,8.30
2018-06-03T01:32:28.759Z,9.43
2018-06-03T01:35:00.230Z,9.70
2018-06-03T01:37:31.624Z,9.83
2018-06-03T01:40:02.877Z,9.50
2018-06-03T01:42:34.260Z,9.87
2018-06-03T01:45:05.398Z,12.53
2018-06-03T01:47:36.548Z,12.23
2018-06-03T01:50:08.390Z,9.57
2018-06-03T01:52:39.707Z,8.57
2018-06-03T01:55:10.741Z,8.50
2018-06-03T01:57:41.913Z,8.03
2018-06-03T02:00:13.306Z,10.50
2018-06-03T02:02:44.687Z,7.60
2018-06-03T02:05:15.853Z,9.67
2018-06-03T02:07:47.087Z,7.80
2018-06-03T02:10:18.772Z,10.03
2018-06-03T02:12:50.350Z,8.33
2018-06-03T02:15:21.517Z,8.50
2018-06-03T02:17:52.475Z,8.87
2018-06-03T02:20:23.615Z,8.00
2018-06-03T02:22:55.060Z,10.23
2018-06-03T02:25:26.328Z,9.80
2018-06-03T02:27:57.807Z,10.27
2018-06-03T02:30:28.856Z,8.57
2018-06-03T02:33:00.163Z,11.17
2018-06-03T02:35:31.330Z,13.30
2018-06-03T02:38:02.479Z,11.97
2018-06-03T02:40:33.721Z,9.87
2018-06-03T02:43:05.134Z,9.93
2018-06-03T02:45:36.702Z,11.03
2018-06-03T02:48:07.870Z,9.00
2018-06-03T02:50:39.032Z,9.80
2018-06-03T02:53:10.454Z,8.07
2018-06-03T02:55:42.273Z,9.03
2018-06-03T02:58:14.188Z,9.83
2018-06-03T03:00:45.564Z,8.83
2018-06-03T03:03:17.055Z,9.00
2018-06-03T03:05:48.432Z,9.53
2018-06-03T03:08:19.804Z,8.63
2018-06-03T03:10:51.011Z,9.30
2018-06-03T03:13:22.306Z,8.93
2018-06-03T03:15:53.583Z,9.23
2018-06-03T03:18:24.800Z,8.90
2018-06-03T03:20:55.917Z,8.83
2018-06-03T03:23:27.226Z,8.77
2018-06-03T03:25:58.692Z,8.37
2018-06-03T03:28:29.824Z,8.50
2018-06-03T03:31:01.453Z,8.53
2018-06-03T03:33:32.609Z,8.63
2018-06-03T03:36:03.774Z,8.90
2018-06-03T03:38:34.845Z,8.53
2018-06-03T03:41:06.321Z,7.50
2018-06-03T03:43:37.739Z,8.53
2018-06-03T03:46:08.833Z,8.53
2018-06-03T03:48:40.055Z,8.43
2018-06-03T03:51:11.749Z,9.07
2018-06-03T03:53:43.193Z,7.30
2018-06-03T03:56:14.745Z,8.20
2018-06-03T03:58:45.866Z,7.77
2018-06-03T04:01:17.228Z,8.30
2018-06-03T04:03:48.854Z,8.53
2018-06-03T04:06:20.040Z,10.57
2018-06-03T04:08:51.538Z,7.90
2018-06-03T04:11:22.685Z,7.83
2018-06-03T04:13:53.825Z,6.83
2018-06-03T04:16:25.012Z,8.70
2018-06-03T04:18:56.502Z,8.63
2018-06-03T04:21:27.617Z,8.03
2018-06-03T04:23:58.802Z,8.03
2018-06-03T04:26:29.984Z,7.37
2018-06-03T04:29:01.318Z,8.93
2018-06-03T04:31:32.539Z,6.53
2018-06-03T04:34:03.947Z,6.13
2018-06-03T04:36:35.167Z,7.80
2018-06-03T04:39:07.504Z,6.17
2018-06-03T04:41:38.625Z,9.27
2018-06-03T04:44:10.066Z,8.37
2018-06-03T04:46:41.217Z,7.27
2018-06-03T04:49:12.798Z,8.50
2018-06-03T04:51:44.233Z,6.77
2018-06-03T04:54:15.729Z,7.43
2018-06-03T04:56:46.237Z,7.80
2018-06-03T04:59:18.474Z,8.27
2018-06-03T05:01:49.078Z,8.37
2018-06-03T05:04:20.091Z,7.43
2018-06-03T05:06:51.621Z,7.87
2018-06-03T05:09:23.245Z,10.90
2018-06-03T05:11:55.699Z,7.57
2018-06-03T05:14:26.965Z,8.70
2018-06-03T05:16:58.417Z,8.50
2018-06-03T05:19:28.808Z,9.00
2018-06-03T05:25:00.872Z,11.30
2018-06-03T05:27:31.612Z,10.30
2018-06-03T05:30:02.401Z,9.80
2018-06-03T05:32:33.142Z,7.77
2018-06-03T05:35:09.498Z,9.70
2018-06-03T05:37:40.436Z,7.63
2018-06-03T05:40:11.343Z,10.33
2018-06-03T05:42:42.173Z,8.77
2018-06-03T05:45:12.920Z,9.97
2018-06-03T05:47:43.692Z,10.43
2018-06-03T05:50:14.617Z,7.93
2018-06-03T05:52:45.421Z,9.13
2018-06-03T05:55:16.147Z,8.60
2018-06-03T05:57:46.852Z,10.07
2018-06-03T06:00:17.610Z,8.53
2018-06-03T06:05:44.654Z,9.43
2018-06-03T06:08:15.723Z,7.40
2018-06-03T06:10:46.703Z,8.23
2018-06-03T06:13:17.452Z,8.20
2018-06-03T06:15:48.439Z,7.67
2018-06-03T06:18:19.265Z,9.27
2018-06-03T06:20:50.139Z,7.90
2018-06-03T06:23:20.888Z,8.00
2018-06-03T06:25:51.816Z,7.63
2018-06-03T06:28:22.753Z,7.23
2018-06-03T06:30:55.705Z,7.17
2018-06-03T06:33:26.691Z,8.53
2018-06-03T06:35:58.657Z,11.17
2018-06-03T06:38:29.415Z,8.00
2018-06-03T06:41:00.178Z,7.30
2018-06-03T06:43:54.671Z,7.83
2018-06-03T06:46:25.545Z,6.70
2018-06-03T06:48:56.384Z,7.73
2018-06-03T06:51:27.071Z,6.40
2018-06-03T06:53:58.451Z,7.47
2018-06-03T06:56:33.483Z,7.60
2018-06-03T06:59:04.197Z,6.40
2018-06-03T07:01:45.203Z,7.03
2018-06-03T07:04:16.103Z,6.70
2018-06-03T07:06:51.184Z,8.03
2018-06-03T07:09:22.014Z,6.60
2018-06-03T07:11:52.768Z,7.03
2018-06-03T07:14:23.556Z,7.00
2018-06-03T07:16:54.286Z,8.10
2018-06-03T07:19:25.180Z,6.77
2018-06-03T07:21:55.865Z,6.13
2018-06-03T07:24:26.749Z,7.50
2018-06-03T07:26:57.628Z,6.57
2018-06-03T07:29:31.684Z,7.43
2018-06-03T07:32:02.611Z,6.77
2018-06-03T07:43:48.134Z,7.07
2018-06-03T07:46:18.950Z,7.07
2018-06-03T07:51:56.771Z,9.03
2018-06-03T07:54:27.540Z,6.67
2018-06-03T07:56:58.260Z,6.83
2018-06-03T07:59:29.094Z,6.10
2018-06-03T08:01:59.946Z,6.00
2018-06-03T08:04:30.744Z,6.67
2018-06-03T08:07:01.494Z,5.97
2018-06-03T08:09:32.202Z,7.37
2018-06-03T08:18:05.481Z,6.80
2018-06-03T08:20:36.120Z,5.80
2018-06-03T08:23:06.935Z,7.53
2018-06-03T08:25:38.164Z,6.07
2018-06-03T08:31:18.484Z,6.30
2018-06-03T08:33:49.375Z,6.23
2018-06-03T08:36:20.169Z,4.67
2018-06-03T08:41:53.752Z,5.87
2018-06-03T08:44:24.595Z,7.60
2018-06-03T08:46:55.241Z,4.63
2018-06-03T08:49:37.855Z,4.67
2018-06-03T08:52:08.373Z,4.33
2018-06-03T08:55:01.190Z,6.60
2018-06-03T08:57:32.243Z,3.90
2018-06-03T09:00:20.440Z,5.03
2018-06-03T09:02:51.344Z,5.00
2018-06-03T09:05:22.186Z,6.37
2018-06-03T09:08:16.054Z,4.33
2018-06-03T09:10:46.777Z,5.23
2018-06-03T09:13:29.571Z,5.50
2018-06-03T09:16:00.484Z,4.97
2018-06-03T09:18:31.355Z,5.13
2018-06-03T09:21:20.777Z,5.70
2018-06-03T09:23:51.587Z,5.43
2018-06-03T09:32:36.188Z,4.67
2018-06-03T09:35:07.284Z,5.40
2018-06-03T09:37:38.340Z,4.63
2018-06-03T09:40:09.279Z,5.07
2018-06-03T09:42:40.772Z,5.57
2018-06-03T09:45:15.572Z,4.13
2018-06-03T09:47:46.401Z,3.40
2018-06-03T09:50:17.425Z,3.90
2018-06-03T09:52:48.293Z,3.90
2018-06-03T09:55:36.920Z,2.97
2018-06-03T09:58:07.769Z,3.53
2018-06-03T10:00:38.726Z,3.40
2018-06-03T10:03:09.555Z,3.83
2018-06-03T10:05:40.477Z,4.00
2018-06-03T10:08:29.089Z,6.12
2018-06-03T10:10:59.819Z,3.20
2018-06-03T10:13:30.700Z,2.98
2018-06-03T10:16:01.429Z,4.37
2018-06-03T10:18:32.382Z,3.17
2018-06-03T10:21:03.146Z,3.62
2018-06-03T10:23:34.063Z,4.07
2018-06-03T10:29:06.762Z,3.17
2018-06-03T10:31:37.520Z,4.40
2018-06-03T10:34:08.470Z,4.08
2018-06-03T10:36:39.570Z,4.55
2018-06-03T10:42:09.931Z,3.20
2018-06-03T10:44:40.671Z,3.62
2018-06-03T10:47:11.373Z,4.05
2018-06-03T10:49:53.792Z,9.10
2018-06-03T10:52:24.411Z,3.75
2018-06-03T10:54:55.113Z,8.45
2018-06-03T10:57:26.093Z,4.80
2018-06-03T10:59:56.818Z,3.40
2018-06-03T11:02:27.650Z,3.20
2018-06-03T11:04:58.575Z,3.10
2018-06-03T11:07:29.539Z,3.30
2018-06-03T11:16:24.423Z,4.22
2018-06-03T11:18:55.593Z,3.25
2018-06-03T11:21:26.471Z,4.55
2018-06-03T11:23:57.286Z,4.03
2018-06-03T11:26:28.077Z,4.05
2018-06-03T11:28:58.847Z,3.50
2018-06-03T11:31:29.746Z,3.50
2018-06-03T11:34:00.492Z,4.62
2018-06-03T11:36:31.291Z,4.95
2018-06-03T11:39:02.037Z,4.92
2018-06-03T11:41:33.256Z,6.37
2018-06-03T11:44:04.145Z,3.20
2018-06-03T11:46:35.184Z,3.30
2018-06-03T11:52:06.020Z,2.98
2018-06-03T11:54:36.844Z,3.00
2018-06-03T11:57:07.575Z,3.20
2018-06-03T11:59:43.029Z,2.98
2018-06-03T12:02:15.695Z,2.58
2018-06-03T12:04:46.550Z,4.40
2018-06-03T12:07:17.373Z,4.08
2018-06-03T12:09:48.291Z,3.08
2018-06-03T12:12:19.257Z,4.00
2018-06-03T12:14:50.367Z,3.00
2018-06-03T12:17:21.257Z,3.15
2018-06-03T12:19:52.080Z,2.92
2018-06-03T12:22:22.737Z,2.87
2018-06-03T12:24:53.911Z,3.33
2018-06-03T12:27:25.305Z,3.22
2018-06-03T12:29:56.035Z,3.60
2018-06-03T12:32:26.715Z,2.70
2018-06-03T12:34:57.607Z,4.03
2018-06-03T12:37:28.445Z,3.67
2018-06-03T12:39:59.365Z,3.30
2018-06-03T12:42:30.183Z,3.12
2018-06-03T12:45:00.966Z,4.03
2018-06-03T12:47:31.868Z,2.98
2018-06-03T12:50:02.707Z,3.02
2018-06-03T12:52:33.913Z,3.05
2018-06-03T12:55:04.967Z,2.52
2018-06-03T12:57:53.343Z,2.80
2018-06-03T13:00:24.180Z,3.15
2018-06-03T13:02:55.035Z,2.87
2018-06-03T13:05:25.996Z,2.90
2018-06-03T13:07:57.008Z,2.80
2018-06-03T13:10:28.180Z,3.77
2018-06-03T13:12:59.864Z,3.10
2018-06-03T13:15:30.895Z,3.10
2018-06-03T13:18:01.109Z,3.42
2018-06-03T13:20:31.577Z,3.60
2018-06-03T13:23:02.313Z,4.00
2018-06-03T13:25:33.007Z,3.55
2018-06-03T13:28:03.983Z,2.90
2018-06-03T13:30:35.216Z,3.30
2018-06-03T13:33:06.415Z,2.85
2018-06-03T13:35:37.384Z,4.37
2018-06-03T13:38:08.333Z,2.98
2018-06-03T13:40:39.183Z,2.87
2018-06-03T13:43:09.921Z,3.67
2018-06-03T13:45:41.079Z,2.85
2018-06-03T13:48:11.928Z,3.05
2018-06-03T13:50:42.614Z,3.02
2018-06-03T13:53:17.623Z,2.85
2018-06-03T13:55:48.408Z,3.67
2018-06-03T13:58:19.355Z,3.27
2018-06-03T14:00:50.109Z,3.47
2018-06-03T14:06:27.516Z,3.17
2018-06-03T14:08:58.267Z,3.10
2018-06-03T14:11:40.403Z,3.20
2018-06-03T14:14:11.495Z,3.02
2018-06-03T14:16:42.235Z,2.95
2018-06-03T14:19:13.009Z,3.20
2018-06-03T14:21:43.766Z,3.02
2018-06-03T14:24:14.547Z,2.75
2018-06-03T14:26:45.869Z,3.10
2018-06-03T14:29:16.606Z,2.62
2018-06-03T14:31:47.363Z,3.10
2018-06-03T14:34:18.253Z,2.67
2018-06-03T14:36:49.168Z,2.80
2018-06-03T14:39:19.912Z,3.12
2018-06-03T14:41:50.674Z,2.83
2018-06-03T14:44:21.420Z,3.08
2018-06-03T14:46:52.243Z,3.30
2018-06-03T14:49:22.810Z,3.27
2018-06-03T14:54:53.571Z,3.05
2018-06-03T14:57:36.351Z,3.12
2018-06-03T15:00:07.047Z,2.92
2018-06-03T15:02:37.877Z,3.12
2018-06-03T15:05:08.608Z,3.57
2018-06-03T15:07:41.358Z,3.70
2018-06-03T15:10:12.251Z,3.33
2018-06-03T15:12:43.275Z,3.00
2018-06-03T15:15:14.232Z,3.33
2018-06-03T15:17:44.985Z,4.35
2018-06-03T15:20:15.951Z,3.67
2018-06-03T15:23:09.000Z,3.10
2018-06-03T15:25:39.787Z,3.67
2018-06-03T15:28:10.554Z,2.98
2018-06-03T15:30:41.594Z,3.43
2018-06-03T15:33:12.509Z,3.20
2018-06-03T15:35:43.377Z,3.40
2018-06-03T15:38:14.189Z,3.17
2018-06-03T15:40:45.068Z,3.00
2018-06-03T15:43:16.009Z,3.67
2018-06-03T15:45:47.124Z,3.20
2018-06-03T15:48:17.941Z,2.93
2018-06-03T15:50:48.606Z,3.37
2018-06-03T15:53:19.321Z,3.62
2018-06-03T15:55:50.062Z,3.22
2018-06-03T15:58:20.865Z,3.93
2018-06-03T16:00:51.721Z,3.62
2018-06-03T16:03:22.365Z,3.57
2018-06-03T16:05:53.102Z,4.60
2018-06-03T16:08:23.824Z,3.77
2018-06-03T16:10:54.582Z,3.20
2018-06-03T16:16:25.222Z,3.37
2018-06-03T16:18:55.955Z,3.77
2018-06-03T16:21:26.714Z,4.33
2018-06-03T16:23:57.438Z,4.33
2018-06-03T16:32:35.097Z,3.70
2018-06-03T16:35:06.161Z,3.62
2018-06-03T16:37:36.926Z,7.22
2018-06-03T16:40:07.743Z,3.63
2018-06-03T16:42:38.573Z,4.45
2018-06-03T16:45:09.395Z,3.65
2018-06-03T16:47:40.272Z,3.33
2018-06-03T16:50:11.067Z,3.40
2018-06-03T16:52:41.767Z,3.22
2018-06-03T16:55:12.516Z,3.45
2018-06-03T16:57:43.234Z,4.50
2018-06-03T17:00:14.025Z,3.95
2018-06-03T17:02:44.771Z,3.33
2018-06-03T17:05:15.523Z,3.50
2018-06-03T17:07:46.177Z,3.05
2018-06-03T17:10:16.973Z,6.97
2018-06-03T17:12:47.735Z,2.83
2018-06-03T17:15:23.585Z,2.87
2018-06-03T17:17:54.295Z,3.40
2018-06-03T17:20:25.062Z,3.52
2018-06-03T17:22:55.660Z,2.92
2018-06-03T17:25:26.326Z,2.80
2018-06-03T17:27:57.056Z,3.27
2018-06-03T17:30:27.808Z,2.58
2018-06-03T17:33:12.323Z,3.65
2018-06-03T17:35:43.089Z,2.80
2018-06-03T17:38:13.843Z,3.80
2018-06-03T17:40:44.159Z,4.00
2018-06-03T17:43:15.053Z,3.80
2018-06-03T17:45:45.784Z,3.00
2018-06-03T17:48:16.619Z,3.08
2018-06-03T17:51:01.053Z,3.05
2018-06-03T17:53:31.904Z,3.77
2018-06-03T17:56:02.681Z,3.80
2018-06-03T17:58:33.556Z,2.65
2018-06-03T18:01:04.261Z,3.47
2018-06-03T18:03:35.136Z,3.00
2018-06-03T18:06:05.796Z,3.02
2018-06-03T18:08:36.542Z,3.40
2018-06-03T18:11:07.390Z,3.62
2018-06-03T18:13:38.037Z,3.37
2018-06-03T18:16:08.748Z,3.33
2018-06-03T18:18:39.540Z,3.45
2018-06-03T18:21:10.320Z,3.40
2018-06-03T18:23:41.048Z,3.50
2018-06-03T18:26:11.752Z,3.40
2018-06-03T18:28:42.566Z,3.30
2018-06-03T18:31:13.250Z,3.37
2018-06-03T18:33:43.912Z,3.40
2018-06-03T18:36:14.627Z,3.25
2018-06-03T18:38:45.363Z,3.40
2018-06-03T18:41:16.099Z,3.47
2018-06-03T18:43:50.623Z,3.50
2018-06-03T18:46:21.500Z,4.15
2018-06-03T18:48:52.133Z,4.20
2018-06-03T18:51:22.906Z,4.15
2018-06-03T18:53:53.707Z,3.55
2018-06-03T18:56:28.187Z,4.62
2018-06-03T18:58:58.823Z,4.08
2018-06-03T19:01:29.545Z,3.75
2018-06-03T19:04:00.396Z,4.20
2018-06-03T19:06:47.721Z,3.87
2018-06-03T19:09:18.580Z,3.77
2018-06-03T19:11:49.260Z,4.20
2018-06-03T19:14:19.946Z,5.13
2018-06-03T19:16:51.576Z,4.80
2018-06-03T19:19:22.401Z,3.47
2018-06-03T19:21:53.231Z,3.43
2018-06-03T19:24:48.163Z,5.27
2018-06-03T19:27:18.928Z,5.20
2018-06-03T19:29:49.775Z,4.77
2018-06-03T19:32:20.590Z,4.17
2018-06-03T19:34:51.229Z,4.07
2018-06-03T19:37:21.973Z,4.60
2018-06-03T19:39:52.711Z,4.60
2018-06-03T19:45:22.356Z,5.67
2018-06-03T19:47:53.090Z,4.97
2018-06-03T19:50:23.922Z,4.87
2018-06-03T19:52:54.629Z,4.90
2018-06-03T19:55:25.395Z,4.60
2018-06-03T19:57:56.066Z,4.47
2018-06-03T20:00:26.847Z,8.10
2018-06-03T20:02:57.489Z,4.07
2018-06-03T20:05:28.508Z,3.90
2018-06-03T20:07:59.218Z,4.73
2018-06-03T20:10:30.001Z,3.70
2018-06-03T20:13:00.670Z,5.17
2018-06-03T20:15:31.331Z,5.37
2018-06-03T20:18:02.108Z,5.60
2018-06-03T20:20:32.814Z,5.07
2018-06-03T20:23:03.459Z,4.10
2018-06-03T20:25:34.124Z,4.87
2018-06-03T20:28:04.905Z,6.30
2018-06-03T20:30:35.723Z,4.67
2018-06-03T20:33:06.516Z,5.53
2018-06-03T20:35:37.202Z,6.80
2018-06-03T20:38:19.359Z,5.00
2018-06-03T20:40:50.124Z,4.93
2018-06-03T20:43:20.868Z,6.43
2018-06-03T20:45:51.537Z,5.10
2018-06-03T20:48:22.522Z,7.47
2018-06-03T20:50:53.231Z,6.47
2018-06-03T20:53:23.979Z,4.43
2018-06-03T20:56:00.403Z,5.67
2018-06-03T20:58:31.172Z,5.67
2018-06-03T21:01:01.870Z,5.20
2018-06-03T21:03:32.604Z,5.33
2018-06-03T21:06:03.279Z,6.00
2018-06-03T21:08:34.036Z,6.00
2018-06-03T21:11:04.733Z,7.00
2018-06-03T21:13:35.499Z,4.80
2018-06-03T21:16:06.347Z,4.73
2018-06-03T21:18:37.173Z,5.50
2018-06-03T21:21:07.993Z,4.40
2018-06-03T21:23:38.749Z,5.37
2018-06-03T21:26:09.539Z,6.53
2018-06-03T21:28:40.207Z,6.57
2018-06-03T21:31:10.918Z,6.37
2018-06-03T21:33:41.699Z,5.23
2018-06-03T21:36:12.451Z,5.57
2018-06-03T21:38:43.155Z,5.27
2018-06-03T21:41:13.793Z,6.30
2018-06-03T21:43:50.168Z,5.97
2018-06-03T21:46:20.990Z,5.90
2018-06-03T21:48:51.634Z,6.23
2018-06-03T21:51:24.504Z,7.53
2018-06-03T21:53:55.399Z,8.33
2018-06-03T21:59:45.058Z,6.70
2018-06-03T22:02:15.823Z,6.83
2018-06-03T22:04:46.621Z,6.10
2018-06-03T22:07:17.515Z,6.30
2018-06-03T22:09:48.423Z,5.73
2018-06-03T22:12:19.120Z,6.77
2018-06-03T22:14:49.891Z,5.47
2018-06-03T22:17:20.653Z,8.90
2018-06-03T22:19:51.465Z,7.07
2018-06-03T22:22:22.182Z,6.13
2018-06-03T22:24:53.326Z,6.07
2018-06-03T22:27:24.438Z,6.40
2018-06-03T22:29:55.644Z,6.53
2018-06-03T22:32:40.962Z,6.17
2018-06-03T22:35:12.209Z,6.37
2018-06-03T22:37:43.021Z,6.40
2018-06-03T22:40:13.923Z,9.03
2018-06-03T22:42:44.666Z,7.07
2018-06-03T22:45:15.358Z,7.10
2018-06-03T22:47:46.149Z,7.33
2018-06-03T22:50:28.609Z,6.90
2018-06-03T22:52:59.421Z,6.67
2018-06-03T22:55:30.170Z,8.80
2018-06-03T22:58:00.945Z,6.47
2018-06-03T23:00:32.620Z,8.23
2018-06-03T23:03:08.567Z,8.20
2018-06-03T23:05:39.280Z,8.63
2018-06-03T23:08:09.997Z,6.93
2018-06-03T23:10:40.769Z,7.10
2018-06-03T23:13:11.506Z,6.30
2018-06-03T23:15:47.871Z,7.27
2018-06-03T23:18:18.668Z,6.97
2018-06-03T23:20:49.412Z,7.07
2018-06-03T23:23:20.124Z,7.27
2018-06-03T23:25:50.844Z,7.00
2018-06-03T23:28:21.534Z,8.13
2018-06-03T23:30:52.336Z,7.50
2018-06-03T23:33:23.086Z,7.00
2018-06-03T23:35:57.312Z,7.80
2018-06-03T23:38:27.919Z,8.00
2018-06-03T23:40:58.769Z,7.33
2018-06-03T23:43:29.472Z,8.73
2018-06-03T23:46:00.181Z,7.47
2018-06-03T23:48:30.907Z,7.70
2018-06-03T23:51:01.753Z,7.50
2018-06-03T23:53:32.508Z,7.40
2018-06-03T23:56:03.292Z,8.50
2018-06-03T23:58:34.057Z,8.07
